Time;durP1;ratioP1;P1;durP2;ratioP2;P2;SDS_P1;SDS_P2;PMS_P1;PMS_P2;Temp;Humidity;BMP_temperature;BMP_pressure;BME280_temperature;BME280_humidity;BME280_pressure;Samples;Min_cycle;Max_cycle;Signal;HPM_P1;HPM_P2
2022/09/26 00:01:36;;;;;;;0.50;0.50;;;14.50;77.00;;;14.50;62.61;94222.38;5059402;28;20218;-84
2022/09/26 00:04:15;;;;;;;0.60;0.60;;;14.50;77.10;;;14.51;62.43;94221.34;5059649;28;20199;-84
2022/09/26 00:06:43;;;;;;;0.50;0.50;;;14.50;77.20;;;14.51;62.77;94221.34;5059432;28;20226;-84
2022/09/26 00:09:12;;;;;;;0.60;0.60;;;14.50;77.10;;;14.51;62.24;94220.53;5067033;28;20213;-84
2022/09/26 00:11:40;;;;;;;0.60;0.60;;;14.50;77.20;;;14.44;62.52;94199.56;5055607;28;20272;-83
2022/09/26 00:14:15;;;;;;;0.80;0.80;;;14.50;77.20;;;14.47;62.70;94193.00;5055195;28;20269;-82
2022/09/26 00:16:42;;;;;;;0.80;0.80;;;14.60;77.70;;;14.47;62.66;94199.09;5075631;28;20227;-83
2022/09/26 00:19:09;;;;;;;0.60;0.60;;;14.50;77.30;;;14.50;62.99;94203.91;5075705;28;20224;-84
2022/09/26 00:21:38;;;;;;;0.70;0.70;;;14.50;77.40;;;14.51;62.77;94202.06;5075833;28;20217;-84
2022/09/26 00:24:06;;;;;;;0.60;0.60;;;14.50;77.40;;;14.52;62.73;94201.03;5075669;28;20194;-84
2022/09/26 00:26:35;;;;;;;0.60;0.60;;;14.50;77.50;;;14.52;62.88;94196.53;5039888;28;20231;-83
2022/09/26 00:29:10;;;;;;;0.50;0.50;;;14.50;77.40;;;14.52;62.57;94201.81;5077255;28;20217;-84
2022/09/26 00:31:43;;;;;;;0.70;0.70;;;14.50;77.80;;;14.51;63.09;94194.13;5077306;28;20255;-84
2022/09/26 00:34:16;;;;;;;0.60;0.60;;;14.50;77.70;;;14.48;62.69;94192.78;5064514;28;20207;-84
2022/09/26 00:36:43;;;;;;;0.57;0.57;;;14.50;77.40;;;14.46;63.06;94199.31;5037288;28;20246;-83
2022/09/26 00:39:13;;;;;;;0.60;0.60;;;14.50;77.30;;;14.43;63.03;94195.31;5053720;28;20219;-84
2022/09/26 00:41:41;;;;;;;0.60;0.60;;;14.50;77.40;;;14.41;62.78;94186.81;5053869;28;20219;-83
2022/09/26 00:44:49;;;;;;;0.60;0.60;;;14.50;77.40;;;14.39;63.18;94196.81;5057542;28;20191;-83
2022/09/26 00:47:37;;;;;;;0.70;0.70;;;14.50;77.80;;;14.37;63.32;94190.97;5076106;28;20217;-84
2022/09/26 00:50:29;;;;;;;0.70;0.70;;;14.50;77.80;;;14.35;63.27;94188.53;5077029;28;20228;-84
2022/09/26 00:53:00;;;;;;;0.60;0.60;;;14.40;77.70;;;14.35;63.08;94183.28;5050540;28;20222;-84
2022/09/26 00:55:33;;;;;;;0.70;0.70;;;14.50;77.80;;;14.35;63.24;94182.47;5073370;28;20194;-84
2022/09/26 00:58:18;;;;;;;0.70;0.70;;;14.40;77.70;;;14.32;63.09;94180.28;5073140;28;20310;-84
2022/09/26 01:00:48;;;;;;;0.70;0.70;;;14.40;77.70;;;14.32;63.53;94177.66;5060352;28;20246;-84
2022/09/26 01:03:18;;;;;;;0.73;0.73;;;14.40;77.70;;;14.27;63.67;94167.84;5040653;28;20219;-83
2022/09/26 01:05:45;;;;;;;0.60;0.60;;;14.40;77.70;;;14.27;63.42;94177.56;5107012;28;20199;-84
2022/09/26 01:08:14;;;;;;;0.75;0.75;;;14.40;77.70;;;14.25;63.63;94181.22;5054514;28;20223;-84
2022/09/26 01:10:43;;;;;;;0.70;0.70;;;14.30;77.60;;;14.25;63.71;94178.59;5069958;28;20199;-84
2022/09/26 01:13:10;;;;;;;0.60;0.60;;;14.30;77.60;;;14.19;63.79;94165.56;5085327;28;20231;-83
2022/09/26 01:15:37;;;;;;;0.52;0.52;;;14.40;77.70;;;14.24;63.25;94176.19;5089436;28;20199;-84
2022/09/26 01:18:06;;;;;;;0.60;0.60;;;14.30;77.70;;;14.23;63.69;94178.03;5081977;28;20218;-83
2022/09/26 01:21:19;;;;;;;0.50;0.50;;;14.30;77.60;;;14.20;64.00;94170.59;5087880;28;20229;-83
2022/09/26 01:24:22;;;;;;;0.50;0.50;;;14.30;77.60;;;14.17;63.68;94167.59;5087941;28;20199;-82
2022/09/26 01:27:34;;;;;;;0.55;0.55;;;14.30;77.70;;;14.14;64.01;94165.44;5071265;28;20245;-84
2022/09/26 01:30:20;;;;;;;0.80;0.80;;;14.30;77.70;;;14.15;64.02;94167.84;5045872;28;20197;-84
2022/09/26 01:33:31;;;;;;;0.60;0.60;;;14.30;77.60;;;14.17;64.01;94164.97;5052590;28;20222;-84
2022/09/26 01:36:33;;;;;;;0.80;0.80;;;14.20;77.60;;;14.14;63.92;94157.53;5061494;28;20271;-83
2022/09/26 01:39:15;;;;;;;0.60;0.60;;;14.30;77.60;;;14.13;63.78;94162.00;5054160;28;20645;-84
2022/09/26 01:42:19;;;;;;;0.60;0.60;;;14.20;77.60;;;14.08;64.07;94153.97;5072402;28;20696;-84
2022/09/26 01:44:57;;;;;;;0.70;0.70;;;14.20;77.60;;;14.02;64.39;94144.38;5089657;28;20646;-83
2022/09/26 01:48:09;;;;;;;0.70;0.70;;;14.30;77.70;;;13.96;63.96;94138.19;5079173;28;20275;-83
2022/09/26 01:50:47;;;;;;;0.50;0.50;;;14.20;77.60;;;13.97;64.34;94144.25;4998453;28;20250;-83
2022/09/26 01:53:33;;;;;;;0.70;0.70;;;14.10;77.50;;;13.96;64.13;94148.72;5011477;28;20227;-84
2022/09/26 01:56:09;;;;;;;0.40;0.40;;;14.10;77.50;;;13.92;64.22;94142.31;5045543;28;20214;-83
2022/09/26 01:58:41;;;;;;;0.60;0.60;;;14.10;77.50;;;13.89;64.94;94146.22;5062131;28;20207;-84
2022/09/26 02:01:13;;;;;;;0.60;0.60;;;14.10;77.50;;;13.82;65.36;94137.63;5051769;28;20742;-84
2022/09/26 02:03:57;;;;;;;0.50;0.50;;;14.00;77.70;;;13.83;65.12;94141.88;5054667;28;20214;-83
2022/09/26 02:06:34;;;;;;;0.60;0.60;;;14.00;77.80;;;13.78;65.20;94131.22;5068805;28;20203;-84
2022/09/26 02:09:15;;;;;;;0.60;0.60;;;14.00;78.10;;;13.82;64.98;94139.44;5054194;28;20208;-84
2022/09/26 02:11:47;;;;;;;0.60;0.60;;;14.10;78.10;;;13.78;64.82;94133.88;5055563;28;20249;-84
2022/09/26 02:14:29;;;;;;;0.60;0.60;;;14.00;77.70;;;13.73;64.60;94131.91;5051940;28;20231;-84
2022/09/26 02:17:12;;;;;;;0.50;0.50;;;13.90;77.60;;;13.66;64.42;94127.78;5052137;28;20215;-84
2022/09/26 02:19:49;;;;;;;0.70;0.70;;;13.90;77.60;;;13.65;64.57;94124.34;5068119;28;20218;-84
2022/09/26 02:22:18;;;;;;;0.60;0.60;;;13.90;77.80;;;13.61;64.32;94125.84;5055412;28;20230;-83
2022/09/26 02:24:45;;;;;;;0.68;0.68;;;13.80;77.40;;;13.56;64.68;94123.09;5069700;28;20298;-83
2022/09/26 02:27:12;;;;;;;0.60;0.60;;;13.70;77.50;;;13.51;64.19;94122.97;5054702;28;20218;-84
2022/09/26 02:29:39;;;;;;;0.68;0.68;;;13.70;77.50;;;13.49;64.61;94130.31;5055299;28;20194;-84
2022/09/26 02:32:18;;;;;;;0.60;0.60;;;13.60;77.50;;;13.42;65.01;94136.47;5054374;28;20269;-83
2022/09/26 02:34:48;;;;;;;0.60;0.60;;;13.60;78.00;;;13.36;65.49;94133.94;5055271;28;20589;-83
2022/09/26 02:37:17;;;;;;;0.60;0.60;;;13.50;78.00;;;13.28;65.94;94130.63;5056933;28;20226;-83
2022/09/26 02:39:46;;;;;;;0.60;0.60;;;13.50;78.10;;;13.28;65.71;94135.06;5073725;28;20226;-84
2022/09/26 02:42:43;;;;;;;0.60;0.60;;;13.50;78.20;;;13.25;65.62;94138.97;5068526;28;20214;-83
2022/09/26 02:45:33;;;;;;;0.70;0.70;;;13.50;78.50;;;13.20;65.44;94135.44;5051697;28;20658;-84
2022/09/26 02:48:37;;;;;;;0.80;0.80;;;13.40;78.80;;;13.19;65.33;94145.13;5076630;28;20669;-84
2022/09/26 02:51:38;;;;;;;0.60;0.60;;;13.40;78.80;;;13.17;65.63;94136.69;5072166;28;20190;-84
2022/09/26 02:54:21;;;;;;;0.60;0.60;;;13.30;78.60;;;13.17;65.50;94136.69;5066899;28;20277;-84
2022/09/26 02:57:25;;;;;;;0.60;0.60;;;13.30;79.20;;;13.13;65.79;94143.41;5037801;28;20222;-83
2022/09/26 03:00:12;;;;;;;0.70;0.70;;;13.30;78.90;;;13.11;65.73;94130.47;5055049;28;20271;-84
2022/09/26 03:03:09;;;;;;;0.70;0.70;;;13.30;78.60;;;13.11;66.08;94133.13;5066830;28;20215;-83
2022/09/26 03:05:39;;;;;;;0.60;0.60;;;13.30;78.60;;;13.08;65.56;94123.03;5074110;28;20675;-83
2022/09/26 03:08:25;;;;;;;0.50;0.50;;;13.20;78.40;;;13.03;65.36;94125.53;5051233;28;20212;-82
2022/09/26 03:10:56;;;;;;;0.70;0.70;;;13.20;78.50;;;13.05;65.61;94128.75;5035165;28;20192;-81
2022/09/26 03:13:25;;;;;;;0.68;0.68;;;13.20;78.40;;;13.03;65.11;94124.75;5090667;28;20251;-84
2022/09/26 03:15:58;;;;;;;0.52;0.52;;;13.10;78.30;;;13.02;65.05;94120.50;5053067;28;20211;-87
2022/09/26 03:18:52;;;;;;;0.73;0.73;;;13.10;78.30;;;12.98;64.76;94122.78;5075836;28;20245;-86
2022/09/26 03:21:20;;;;;;;0.60;0.60;;;13.10;78.70;;;12.92;64.79;94118.44;5045798;28;20226;-86
2022/09/26 03:23:49;;;;;;;0.70;0.70;;;13.00;78.20;;;12.89;64.98;94110.97;5060943;28;20209;-87
2022/09/26 03:26:23;;;;;;;0.63;0.63;;;13.00;78.10;;;12.86;64.83;94116.72;5053316;28;20195;-87
2022/09/26 03:28:58;;;;;;;0.60;0.60;;;13.00;78.20;;;12.80;64.96;94113.94;5074901;28;20199;-87
2022/09/26 03:31:30;;;;;;;0.65;0.65;;;12.90;78.10;;;12.82;65.02;94124.25;5038723;28;20226;-87
2022/09/26 03:34:06;;;;;;;0.80;0.80;;;12.90;78.20;;;12.75;64.81;94100.66;5055075;28;20221;-87
2022/09/26 03:36:33;;;;;;;0.60;0.60;;;12.80;78.10;;;12.72;65.11;94103.75;5037261;28;20234;-87
2022/09/26 03:39:02;;;;;;;0.70;0.70;;;12.80;78.20;;;12.70;65.16;94105.00;5070790;28;20214;-87
2022/09/26 03:41:41;;;;;;;0.63;0.63;;;12.80;78.20;;;12.70;65.27;94103.16;5055162;28;20742;-86
2022/09/26 03:44:20;;;;;;;0.60;0.60;;;12.80;78.30;;;12.66;65.65;94096.75;5089058;28;20217;-85
2022/09/26 03:47:03;;;;;;;0.63;0.63;;;12.80;78.40;;;12.63;65.56;94105.91;5059231;28;20219;-85
2022/09/26 03:49:35;;;;;;;0.60;0.60;;;12.70;78.40;;;12.61;65.48;94100.06;5069309;28;20229;-87
2022/09/26 03:52:03;;;;;;;0.65;0.65;;;12.70;78.50;;;12.60;65.44;94101.06;5074471;28;20281;-87
2022/09/26 03:54:30;;;;;;;0.60;0.60;;;12.70;78.50;;;12.60;65.24;94102.91;5060436;28;20199;-87
2022/09/26 03:56:58;;;;;;;0.60;0.60;;;12.60;79.30;;;12.58;65.14;94092.59;5077967;28;20225;-87
2022/09/26 03:59:26;;;;;;;0.70;0.70;;;12.60;78.60;;;12.57;64.90;94098.09;5055141;28;20191;-86
2022/09/26 04:01:54;;;;;;;0.60;0.60;;;12.70;78.60;;;12.56;65.40;94099.94;5042601;28;20223;-86
2022/09/26 04:04:21;;;;;;;0.60;0.60;;;12.60;78.50;;;12.55;65.13;94102.75;5041309;28;20206;-86
2022/09/26 04:06:50;;;;;;;0.70;0.70;;;12.60;78.60;;;12.48;64.87;94087.09;5056630;28;20715;-86
2022/09/26 04:09:17;;;;;;;0.70;0.70;;;12.50;78.40;;;12.46;65.20;94091.75;5071778;28;20263;-87
2022/09/26 04:11:50;;;;;;;0.60;0.60;;;12.60;78.50;;;12.41;65.20;94076.63;5077767;28;20222;-86
2022/09/26 04:14:18;;;;;;;0.70;0.70;;;12.50;78.50;;;12.42;65.27;94077.47;5039962;28;20448;-87
2022/09/26 04:16:50;;;;;;;0.60;0.60;;;12.50;78.60;;;12.37;65.29;94080.75;5075010;28;20214;-88
2022/09/26 04:19:28;;;;;;;0.60;0.60;;;12.50;78.60;;;12.43;65.26;94086.97;5051343;28;20251;-86
2022/09/26 04:21:58;;;;;;;0.50;0.50;;;12.50;78.60;;;12.41;64.93;94087.16;5057826;28;20233;-86
2022/09/26 04:24:27;;;;;;;0.60;0.60;;;12.50;78.60;;;12.32;65.04;94076.16;5052218;28;20202;-87
2022/09/26 04:26:55;;;;;;;0.70;0.70;;;12.50;78.70;;;12.37;65.25;94079.97;5077338;28;20266;-86
2022/09/26 04:29:23;;;;;;;0.70;0.70;;;12.50;78.80;;;12.37;65.38;94078.13;5040954;28;20222;-87
2022/09/26 04:32:06;;;;;;;0.70;0.70;;;12.40;78.80;;;12.42;65.64;94083.50;5045186;28;20224;-84
2022/09/26 04:34:47;;;;;;;0.70;0.70;;;12.50;79.00;;;12.43;65.24;94082.50;5057047;28;20209;-84
2022/09/26 04:37:14;;;;;;;0.60;0.60;;;12.50;79.00;;;12.46;65.65;94078.59;5056535;28;20325;-84
2022/09/26 04:39:42;;;;;;;0.70;0.70;;;12.50;79.10;;;12.48;65.65;94079.97;5069000;28;20225;-86
2022/09/26 04:42:10;;;;;;;0.57;0.57;;;12.50;80.00;;;12.50;65.71;94071.88;5074727;28;20703;-86
2022/09/26 04:44:38;;;;;;;0.60;0.60;;;12.50;79.30;;;12.50;65.78;94069.25;5053247;28;20199;-87
2022/09/26 04:47:05;;;;;;;0.70;0.70;;;12.50;79.50;;;12.56;65.82;94073.63;5053601;28;20724;-86
2022/09/26 04:49:52;;;;;;;0.60;0.60;;;12.60;79.40;;;12.61;66.22;94081.63;5064388;28;20206;-86
2022/09/26 04:52:20;;;;;;;0.60;0.60;;;12.60;79.40;;;12.63;65.96;94078.78;5060018;28;20218;-87
2022/09/26 04:54:48;;;;;;;0.60;0.60;;;12.70;79.60;;;12.70;66.06;94083.94;5049009;28;20198;-87
2022/09/26 04:57:15;;;;;;;0.60;0.60;;;12.70;79.60;;;12.72;65.83;94076.63;5077219;28;20308;-86
2022/09/26 04:59:46;;;;;;;0.60;0.60;;;12.70;79.60;;;12.77;65.93;94082.81;5071061;28;20572;-87
2022/09/26 05:02:14;;;;;;;0.60;0.60;;;12.80;79.60;;;12.78;66.31;94079.16;5075718;28;20248;-87
2022/09/26 05:04:43;;;;;;;0.60;0.60;;;12.80;79.50;;;12.82;66.04;94088.19;5056268;28;20661;-87
2022/09/26 05:07:13;;;;;;;0.60;0.60;;;12.90;79.50;;;12.89;65.93;94089.91;5067408;28;20220;-85
2022/09/26 05:09:41;;;;;;;0.60;0.60;;;12.90;79.40;;;12.84;65.68;94090.63;5080971;28;20198;-86
2022/09/26 05:12:16;;;;;;;0.60;0.60;;;13.00;79.40;;;12.91;65.79;94098.41;5041938;28;20218;-86
2022/09/26 05:14:46;;;;;;;0.50;0.50;;;13.00;79.30;;;12.89;65.73;94089.91;5056476;28;20191;-85
2022/09/26 05:17:14;;;;;;;0.60;0.60;;;13.00;79.30;;;12.94;65.89;94090.84;5039288;28;20237;-86
2022/09/26 05:19:45;;;;;;;0.60;0.60;;;13.00;79.30;;;12.97;65.81;94093.03;5056705;28;20194;-85
2022/09/26 05:22:23;;;;;;;0.60;0.60;;;13.00;79.40;;;12.97;65.83;94085.16;5057827;28;20218;-86
2022/09/26 05:27:38;;;;;;;0.60;0.60;;;13.10;79.60;;;12.99;66.33;94084.91;5058468;28;20704;-86
2022/09/26 05:30:07;;;;;;;0.80;0.80;;;13.20;79.70;;;13.05;66.19;94088.44;5055850;28;20222;-86
2022/09/26 05:32:34;;;;;;;0.60;0.60;;;13.10;79.70;;;13.11;66.00;94082.31;5072606;28;20219;-86
2022/09/26 05:35:04;;;;;;;0.60;0.60;;;13.10;79.70;;;13.18;65.99;94096.13;5072147;28;20237;-85
2022/09/26 05:37:36;;;;;;;0.57;0.57;;;13.20;79.70;;;13.21;66.41;94089.63;5071395;28;20743;-85
2022/09/26 05:42:52;;;;;;;0.60;0.60;;;13.30;79.80;;;13.33;65.79;94100.97;5058286;28;20214;-86
2022/09/26 05:45:21;;;;;;;0.80;0.80;;;13.40;79.90;;;13.34;65.95;94080.69;5071728;28;20413;-84
2022/09/26 05:47:56;;;;;;;0.60;0.60;;;13.40;79.70;;;13.37;66.03;94088.94;5086956;28;20241;-88
2022/09/26 05:50:24;;;;;;;0.60;0.60;;;13.40;79.90;;;13.38;66.29;94068.72;5054179;28;20187;-89
2022/09/26 05:52:55;;;;;;;0.60;0.60;;;13.50;79.80;;;13.53;66.09;94090.09;5054451;28;20232;-88
2022/09/26 05:55:25;;;;;;;0.60;0.60;;;13.60;80.00;;;13.53;66.24;94078.78;5054991;28;20226;-88
2022/09/26 05:58:03;;;;;;;0.50;0.50;;;13.60;79.90;;;13.59;66.00;94077.84;5057262;28;20222;-88
2022/09/26 06:00:50;;;;;;;0.70;0.70;;;13.70;79.90;;;13.62;66.37;94072.09;5055599;28;20256;-88
2022/09/26 06:03:18;;;;;;;0.60;0.60;;;13.80;80.00;;;13.71;66.10;94078.63;5072996;28;20220;-87
2022/09/26 06:06:14;;;;;;;0.60;0.60;;;13.80;79.90;;;13.80;65.86;94080.91;5070907;28;20190;-86
2022/09/26 06:08:43;;;;;;;0.70;0.70;;;13.90;79.80;;;13.80;65.88;94080.91;5059200;28;20206;-87
2022/09/26 06:11:33;;;;;;;0.60;0.60;;;13.90;79.80;;;13.91;65.98;94090.63;5080783;28;20227;-82
2022/09/26 06:14:01;;;;;;;0.60;0.60;;;14.00;79.80;;;13.95;65.71;94090.97;5070332;28;20206;-82
2022/09/26 06:16:28;;;;;;;0.60;0.60;;;14.00;79.80;;;13.99;65.72;94085.00;5053927;28;20210;-82
2022/09/26 06:18:56;;;;;;;0.60;0.60;;;14.10;79.60;;;13.99;66.01;94086.81;5073312;28;20277;-83
2022/09/26 06:21:23;;;;;;;0.80;0.80;;;14.10;79.50;;;14.03;65.55;94080.84;5045269;28;20225;-82
2022/09/26 06:23:54;;;;;;;0.70;0.70;;;14.10;79.40;;;14.05;65.82;94091.97;5054838;28;20218;-82
2022/09/26 06:26:27;;;;;;;0.60;0.60;;;14.10;79.40;;;14.11;65.99;94090.25;5069627;28;20626;-82
2022/09/26 06:28:56;;;;;;;0.60;0.60;;;14.20;79.60;;;14.16;65.64;94090.34;5035894;28;20274;-83
2022/09/26 06:31:27;;;;;;;0.80;0.80;;;14.20;79.60;;;14.22;66.26;94092.03;5052480;28;20205;-83
2022/09/26 06:34:11;;;;;;;0.40;0.40;;;14.30;79.70;;;14.29;66.34;94091.09;5082155;28;20199;-83
2022/09/26 06:37:00;;;;;;;0.70;0.70;;;14.40;79.80;;;14.32;66.27;94085.34;5072632;28;20226;-83
2022/09/26 06:39:34;;;;;;;0.55;0.55;;;14.50;79.70;;;14.41;65.96;94091.84;5053966;28;20201;-82
2022/09/26 06:42:04;;;;;;;0.60;0.60;;;14.50;79.60;;;14.49;66.16;94088.03;5054138;28;20782;-83
2022/09/26 06:44:56;;;;;;;0.50;0.50;;;14.60;79.80;;;14.58;66.05;94094.53;5069691;28;20559;-82
2022/09/26 06:47:24;;;;;;;0.60;0.60;;;14.70;79.70;;;14.64;65.80;94095.44;5069700;28;20639;-81
2022/09/26 06:50:23;;;;;;;0.70;0.70;;;14.80;79.70;;;14.69;65.99;94090.25;5025558;28;20660;-83
2022/09/26 06:52:54;;;;;;;0.70;0.70;;;14.90;79.40;;;14.79;65.79;94087.00;5053239;28;20584;-83
2022/09/26 06:55:23;;;;;;;0.60;0.60;;;14.90;79.50;;;14.86;65.87;94080.50;5066314;28;20286;-82
2022/09/26 06:57:52;;;;;;;0.60;0.60;;;15.00;79.40;;;14.94;65.98;94089.91;5018197;28;20215;-82
2022/09/26 07:00:20;;;;;;;0.80;0.80;;;15.10;79.50;;;14.99;65.65;94089.97;5050776;28;20205;-81
2022/09/26 07:03:07;;;;;;;0.60;0.60;;;15.10;79.50;;;15.09;65.55;94094.63;5052503;28;20221;-82
2022/09/26 07:05:49;;;;;;;0.60;0.60;;;15.20;79.40;;;15.16;65.92;94091.81;5075147;28;20206;-82
2022/09/26 07:08:16;;;;;;;0.60;0.60;;;15.30;79.40;;;15.24;65.64;94095.91;5054778;28;20210;-82
2022/09/26 07:10:43;;;;;;;0.60;0.60;;;15.30;79.20;;;15.26;65.26;94102.53;5083661;28;20680;-81
2022/09/26 07:13:28;;;;;;;0.50;0.50;;;15.40;79.00;;;15.27;65.34;94093.59;5086224;28;20252;-83
2022/09/26 07:15:57;;;;;;;0.60;0.60;;;15.40;78.70;;;15.27;64.96;94096.22;5062877;28;20200;-83
2022/09/26 07:18:37;;;;;;;0.60;0.60;;;15.50;78.50;;;15.28;65.35;94089.09;5056994;28;20199;-81
2022/09/26 07:21:27;;;;;;;0.50;0.50;;;15.50;78.50;;;15.35;65.36;94092.38;5058472;28;20233;-81
2022/09/26 07:24:02;;;;;;;0.60;0.60;;;15.60;78.90;;;15.40;65.76;94107.50;5070003;28;20202;-82
2022/09/26 07:26:30;;;;;;;0.70;0.70;;;15.60;79.10;;;15.47;65.14;94095.72;5074245;28;20230;-81
2022/09/26 07:28:58;;;;;;;0.55;0.55;;;15.70;79.10;;;15.54;65.20;94090.28;5038807;28;20206;-81
2022/09/26 07:31:27;;;;;;;0.50;0.50;;;15.70;79.30;;;15.68;65.39;94112.69;5053775;28;20234;-83
2022/09/26 07:34:15;;;;;;;0.50;0.50;;;15.80;79.10;;;15.77;64.69;94093.72;5072463;28;20194;-84
2022/09/26 07:36:46;;;;;;;0.50;0.50;;;15.90;78.80;;;15.83;64.79;94098.88;5059493;28;20241;-84
2022/09/26 07:39:14;;;;;;;0.60;0.60;;;16.00;78.90;;;16.00;65.22;94100.66;5074705;28;20660;-84
2022/09/26 07:41:44;;;;;;;0.50;0.50;;;16.10;78.90;;;16.17;65.33;94097.97;5074769;28;20230;-84
2022/09/26 07:44:13;;;;;;;0.65;0.65;;;16.30;79.30;;;16.31;64.74;94104.47;5071935;28;20210;-83
2022/09/26 07:53:01;;;;;;;0.55;0.55;;;16.70;78.30;;;16.62;63.17;94102.19;5067972;28;20317;-83
2022/09/26 07:55:32;;;;;;;0.50;0.50;;;16.90;78.00;;;16.61;62.39;94095.28;5058088;28;20187;-83
2022/09/26 07:58:32;;;;;;;0.50;0.50;;;17.00;76.90;;;16.59;62.65;94097.38;5049570;28;20225;-83
2022/09/26 08:01:14;;;;;;;0.52;0.52;;;16.90;77.00;;;16.58;62.43;94103.72;5068557;28;20211;-83
2022/09/26 08:04:00;;;;;;;0.50;0.50;;;17.00;76.80;;;16.48;62.05;94099.09;5059372;28;20217;-83
2022/09/26 08:06:36;;;;;;;0.60;0.60;;;16.90;76.10;;;16.41;61.77;94106.44;5051519;28;20221;-84
2022/09/26 08:09:04;;;;;;;0.55;0.55;;;16.90;76.00;;;16.33;62.04;94102.41;5069704;28;20191;-84
2022/09/26 08:11:51;;;;;;;0.50;0.50;;;16.80;76.20;;;16.32;62.67;94108.72;5071810;28;20329;-84
2022/09/26 08:14:36;;;;;;;0.60;0.60;;;16.80;76.60;;;16.30;62.54;94105.53;5077966;28;20256;-82
2022/09/26 08:17:16;;;;;;;0.50;0.50;;;16.70;76.40;;;16.35;62.55;94106.66;5056575;28;20245;-84
2022/09/26 08:19:43;;;;;;;0.70;0.70;;;16.80;76.90;;;16.36;62.25;94101.09;5071150;28;20203;-83
2022/09/26 08:22:11;;;;;;;0.50;0.50;;;16.80;76.40;;;16.42;61.87;94102.75;5054829;28;20253;-84
2022/09/26 08:24:38;;;;;;;0.60;0.60;;;16.70;76.30;;;16.44;61.17;94102.50;5071419;28;20232;-83
2022/09/26 08:27:32;;;;;;;0.52;0.52;;;16.80;75.70;;;16.52;62.07;94093.34;5059762;28;20211;-84
2022/09/26 08:30:03;;;;;;;0.50;0.50;;;16.90;76.20;;;16.73;62.81;94100.41;5056249;28;20604;-83
2022/09/26 08:32:33;;;;;;;0.40;0.40;;;17.00;77.10;;;16.90;62.66;94092.34;5057202;28;20233;-85
2022/09/26 08:35:01;;;;;;;0.50;0.50;;;17.10;77.50;;;17.10;62.65;94086.47;5054992;28;20237;-84
2022/09/26 08:38:01;;;;;;;0.50;0.50;;;17.20;77.10;;;17.32;62.46;94093.53;5073203;28;20234;-83
2022/09/26 08:41:22;;;;;;;0.50;0.50;;;17.40;77.30;;;17.47;61.34;94087.53;5071421;28;20218;-83
2022/09/26 08:44:54;;;;;;;0.50;0.50;;;17.60;76.70;;;17.58;60.64;94091.84;5099270;28;20697;-84
2022/09/26 08:47:48;;;;;;;0.40;0.40;;;17.80;76.20;;;17.63;58.83;94091.06;5087726;28;20215;-84
2022/09/26 08:50:55;;;;;;;0.50;0.50;;;17.90;74.80;;;17.66;59.08;94084.47;5043526;28;20190;-84
2022/09/26 08:53:36;;;;;;;0.55;0.55;;;18.00;75.00;;;17.74;57.50;94105.19;5052163;28;20579;-84
2022/09/26 08:56:31;;;;;;;0.50;0.50;;;18.10;73.30;;;17.84;58.38;94089.31;5068724;28;20256;-84
2022/09/26 08:59:02;;;;;;;0.50;0.50;;;18.20;73.80;;;17.88;57.99;94094.91;5085723;28;20192;-84
2022/09/26 09:01:40;;;;;;;0.50;0.50;;;18.20;73.50;;;17.91;59.03;94083.81;5052892;28;20243;-84
2022/09/26 09:04:34;;;;;;;0.50;0.50;;;18.30;74.00;;;17.91;57.45;94071.31;5052181;28;20736;-85
2022/09/26 09:07:17;;;;;;;0.50;0.50;;;18.30;72.80;;;18.01;58.66;94086.53;5085735;28;20225;-84
2022/09/26 09:09:44;;;;;;;0.50;0.50;;;18.40;73.50;;;18.13;58.76;94085.53;5068931;28;20322;-84
2022/09/26 09:13:14;;;;;;;0.50;0.50;;;18.40;74.10;;;18.32;59.80;94081.34;5077629;28;20254;-83
2022/09/26 09:16:04;;;;;;;0.50;0.50;;;18.50;74.70;;;18.50;59.01;94093.31;5068907;28;20282;-84
2022/09/26 09:19:36;;;;;;;0.60;0.60;;;18.70;73.80;;;18.62;58.45;94089.66;5090058;28;20194;-85
2022/09/26 09:23:12;;;;;;;0.40;0.40;;;18.90;73.60;;;18.61;57.89;94082.75;5080168;28;20237;-84
2022/09/26 09:26:32;;;;;;;0.50;0.50;;;19.00;72.70;;;18.59;56.76;94079.53;5070210;28;20191;-83
2022/09/26 09:29:58;;;;;;;0.50;0.50;;;19.00;72.60;;;18.64;57.98;94074.22;5072212;28;20203;-84
2022/09/26 09:32:59;;;;;;;0.40;0.40;;;19.00;72.80;;;18.72;57.91;94077.19;5052770;28;20229;-83
2022/09/26 09:35:56;;;;;;;0.50;0.50;;;19.10;72.60;;;18.87;58.29;94070.28;5057813;28;20192;-84
2022/09/26 09:38:47;;;;;;;0.50;0.50;;;19.10;72.50;;;19.00;58.13;94064.47;5061326;28;20197;-84
2022/09/26 09:41:39;;;;;;;0.50;0.50;;;19.30;72.90;;;19.07;55.76;94066.09;5037346;28;20235;-85
2022/09/26 09:44:40;;;;;;;0.43;0.43;;;19.40;72.00;;;19.16;53.77;94075.13;5035901;28;20708;-83
2022/09/26 09:47:17;;;;;;;0.50;0.50;;;19.50;71.10;;;19.16;54.97;94070.63;5053731;28;20298;-84
2022/09/26 09:49:47;;;;;;;0.45;0.45;;;19.50;70.50;;;19.15;55.07;94069.00;5069003;28;20191;-84
2022/09/26 09:52:39;;;;;;;0.40;0.40;;;19.50;70.60;;;19.08;54.35;94071.13;5035512;28;20284;-83
2022/09/26 09:55:39;;;;;;;0.40;0.40;;;19.50;70.30;;;18.95;53.59;94074.31;5073470;28;20194;-84
2022/09/26 09:58:47;;;;;;;0.50;0.50;;;19.50;69.60;;;18.67;52.72;94077.16;5075803;28;20224;-83
2022/09/26 10:01:32;;;;;;;0.50;0.50;;;19.40;69.40;;;18.47;53.43;94071.81;5075950;28;20873;-83
2022/09/26 10:04:58;;;;;;;0.50;0.50;;;19.20;69.00;;;18.32;54.70;94060.13;5075557;28;20202;-84
2022/09/26 10:07:26;;;;;;;0.50;0.50;;;19.00;69.90;;;18.45;56.18;94050.84;4998186;28;20212;-84
2022/09/26 10:10:20;;;;;;;0.50;0.50;;;18.90;70.80;;;18.59;55.87;94048.50;5075867;28;20198;-83
2022/09/26 10:13:08;;;;;;;0.50;0.50;;;19.00;70.90;;;18.77;55.33;94049.03;5077924;28;20224;-83
2022/09/26 10:16:06;;;;;;;0.50;0.50;;;19.00;70.90;;;18.87;54.44;94039.22;5089891;28;20190;-83
2022/09/26 10:18:59;;;;;;;0.40;0.40;;;19.20;70.40;;;18.98;54.22;94047.19;5079879;28;20202;-82
2022/09/26 10:21:38;;;;;;;0.45;0.45;;;19.30;70.30;;;19.17;55.07;94040.28;5064811;28;20233;-85
2022/09/26 10:24:22;;;;;;;0.40;0.40;;;19.40;70.00;;;19.40;55.61;94051.44;5038464;28;20244;-84
2022/09/26 10:26:57;;;;;;;0.40;0.40;;;19.50;70.90;;;19.63;54.83;94050.06;5057602;28;20761;-84
2022/09/26 10:29:34;;;;;;;0.43;0.43;;;19.70;70.70;;;19.87;55.00;94043.38;5055705;28;20588;-83
2022/09/26 10:32:02;;;;;;;0.30;0.30;;;19.90;70.80;;;20.04;54.27;94048.38;5071755;28;20225;-83
2022/09/26 10:34:34;;;;;;;0.40;0.40;;;20.10;70.90;;;20.18;54.29;94043.25;5055736;28;20672;-84
2022/09/26 10:37:24;;;;;;;0.40;0.40;;;20.30;69.80;;;20.28;54.83;94048.53;5056885;28;20230;-83
2022/09/26 10:40:47;;;;;;;0.40;0.40;;;20.40;69.90;;;20.31;54.39;94039.97;5040759;28;20214;-83
2022/09/26 10:43:31;;;;;;;0.50;0.50;;;20.60;69.60;;;20.25;53.52;94041.88;5074311;28;20769;-84
2022/09/26 10:46:07;;;;;;;0.50;0.50;;;20.50;68.70;;;20.14;53.40;94054.44;5054568;28;20203;-84
2022/09/26 10:49:12;;;;;;;0.40;0.40;;;20.50;68.90;;;20.00;53.20;94045.44;5071091;28;20197;-85
2022/09/26 10:52:22;;;;;;;0.40;0.40;;;20.40;68.50;;;19.83;53.99;94046.59;5071110;28;20222;-84
2022/09/26 10:55:14;;;;;;;0.40;0.40;;;20.30;68.80;;;19.68;54.09;94052.69;5083377;28;20199;-85
2022/09/26 10:57:55;;;;;;;0.45;0.45;;;20.10;69.20;;;19.57;53.95;94058.34;5058845;28;20265;-85
2022/09/26 11:00:36;;;;;;;0.40;0.40;;;20.00;69.00;;;19.48;54.36;94055.41;5059637;28;20241;-86
2022/09/26 11:03:19;;;;;;;0.40;0.40;;;19.80;69.00;;;19.34;54.29;94047.97;5071308;28;20244;-85
2022/09/26 11:06:39;;;;;;;0.40;0.40;;;19.70;69.00;;;19.18;54.74;94054.38;5050808;28;20201;-84
2022/09/26 11:09:19;;;;;;;0.40;0.40;;;19.60;69.40;;;19.08;54.36;94054.38;5075558;28;20203;-85
2022/09/26 11:12:29;;;;;;;0.47;0.47;;;19.40;69.60;;;18.90;55.11;94043.19;5058130;28;20225;-85
2022/09/26 11:15:10;;;;;;;0.50;0.50;;;19.20;69.60;;;18.84;55.22;94054.88;5076124;28;20191;-84
2022/09/26 11:17:46;;;;;;;0.40;0.40;;;19.10;70.00;;;18.74;54.85;94055.66;5068425;28;20218;-84
2022/09/26 11:20:18;;;;;;;0.50;0.50;;;19.00;70.00;;;18.68;55.33;94051.41;5057387;28;20202;-84
2022/09/26 11:23:30;;;;;;;0.50;0.50;;;18.90;70.40;;;18.64;56.03;94048.50;5058095;28;20228;-84
2022/09/26 11:27:05;;;;;;;0.43;0.43;;;18.90;70.50;;;18.68;56.03;94048.75;5058050;28;20207;-85